sensor_id;sensor_type;location;lat;lon;timestamp;P1;durP1;ratioP1;P2;durP2;ratioP2
29958;SDS011;16815;51.100;6.516;2023-10-31T00:00:11;6.73;;;6.07;;
29958;SDS011;16815;51.100;6.516;2023-10-31T00:02:37;6.57;;;5.97;;
29958;SDS011;16815;51.100;6.516;2023-10-31T00:05:03;5.83;;;5.43;;
29958;SDS011;16815;51.100;6.516;2023-10-31T00:07:29;5.90;;;5.40;;
29958;SDS011;16815;51.100;6.516;2023-10-31T00:09:55;6.10;;;5.60;;
29958;SDS011;16815;51.100;6.516;2023-10-31T00:12:21;5.20;;;4.83;;
29958;SDS011;16815;51.100;6.516;2023-10-31T00:14:47;5.43;;;5.03;;
29958;SDS011;16815;51.100;6.516;2023-10-31T00:17:13;5.20;;;4.80;;
29958;SDS011;16815;51.100;6.516;2023-10-31T00:19:38;4.63;;;3.83;;
29958;SDS011;16815;51.100;6.516;2023-10-31T00:22:04;3.30;;;3.00;;
29958;SDS011;16815;51.100;6.516;2023-10-31T00:24:30;3.00;;;2.80;;
29958;SDS011;16815;51.100;6.516;2023-10-31T00:26:57;2.40;;;2.20;;
29958;SDS011;16815;51.100;6.516;2023-10-31T00:29:23;3.13;;;2.70;;
29958;SDS011;16815;51.100;6.516;2023-10-31T00:31:49;3.20;;;2.80;;
29958;SDS011;16815;51.100;6.516;2023-10-31T00:34:15;3.00;;;2.80;;
29958;SDS011;16815;51.100;6.516;2023-10-31T00:36:41;3.00;;;2.80;;
29958;SDS011;16815;51.100;6.516;2023-10-31T00:39:07;3.30;;;3.00;;
29958;SDS011;16815;51.100;6.516;2023-10-31T00:41:33;4.27;;;3.10;;
29958;SDS011;16815;51.100;6.516;2023-10-31T00:43:59;3.20;;;2.90;;
29958;SDS011;16815;51.100;6.516;2023-10-31T00:46:25;4.63;;;3.97;;
29958;SDS011;16815;51.100;6.516;2023-10-31T00:48:51;5.27;;;4.27;;
29958;SDS011;16815;51.100;6.516;2023-10-31T00:51:17;6.03;;;5.10;;
29958;SDS011;16815;51.100;6.516;2023-10-31T00:53:42;5.63;;;5.23;;
29958;SDS011;16815;51.100;6.516;2023-10-31T00:56:08;4.90;;;4.40;;
29958;SDS011;16815;51.100;6.516;2023-10-31T00:58:34;4.17;;;3.80;;
29958;SDS011;16815;51.100;6.516;2023-10-31T01:01:00;3.73;;;3.10;;
29958;SDS011;16815;51.100;6.516;2023-10-31T01:03:26;6.00;;;3.57;;
29958;SDS011;16815;51.100;6.516;2023-10-31T01:05:53;5.37;;;3.20;;
29958;SDS011;16815;51.100;6.516;2023-10-31T01:08:19;4.93;;;3.00;;
29958;SDS011;16815;51.100;6.516;2023-10-31T01:10:45;3.80;;;3.07;;
29958;SDS011;16815;51.100;6.516;2023-10-31T01:13:11;3.40;;;3.10;;
29958;SDS011;16815;51.100;6.516;2023-10-31T01:15:37;3.00;;;2.53;;
29958;SDS011;16815;51.100;6.516;2023-10-31T01:18:03;4.70;;;2.97;;
29958;SDS011;16815;51.100;6.516;2023-10-31T01:20:29;5.20;;;3.53;;
29958;SDS011;16815;51.100;6.516;2023-10-31T01:22:55;7.60;;;3.80;;
29958;SDS011;16815;51.100;6.516;2023-10-31T01:25:21;5.43;;;4.10;;
29958;SDS011;16815;51.100;6.516;2023-10-31T01:27:47;7.77;;;3.83;;
29958;SDS011;16815;51.100;6.516;2023-10-31T01:30:13;3.93;;;3.23;;
29958;SDS011;16815;51.100;6.516;2023-10-31T01:32:39;4.40;;;3.17;;
29958;SDS011;16815;51.100;6.516;2023-10-31T01:35:05;5.57;;;4.20;;
29958;SDS011;16815;51.100;6.516;2023-10-31T01:37:31;6.77;;;5.43;;
29958;SDS011;16815;51.100;6.516;2023-10-31T01:39:57;9.13;;;8.00;;
29958;SDS011;16815;51.100;6.516;2023-10-31T01:42:23;15.30;;;12.67;;
29958;SDS011;16815;51.100;6.516;2023-10-31T01:44:49;18.90;;;16.43;;
29958;SDS011;16815;51.100;6.516;2023-10-31T01:47:15;20.60;;;17.03;;
29958;SDS011;16815;51.100;6.516;2023-10-31T01:49:41;22.20;;;18.70;;
29958;SDS011;16815;51.100;6.516;2023-10-31T01:52:07;20.43;;;17.83;;
29958;SDS011;16815;51.100;6.516;2023-10-31T01:54:33;23.90;;;18.93;;
29958;SDS011;16815;51.100;6.516;2023-10-31T01:57:00;22.47;;;18.47;;
29958;SDS011;16815;51.100;6.516;2023-10-31T01:59:26;25.33;;;19.10;;
29958;SDS011;16815;51.100;6.516;2023-10-31T02:01:53;23.67;;;18.70;;
29958;SDS011;16815;51.100;6.516;2023-10-31T02:04:20;22.00;;;16.57;;
29958;SDS011;16815;51.100;6.516;2023-10-31T02:06:46;18.73;;;15.30;;
29958;SDS011;16815;51.100;6.516;2023-10-31T02:09:12;17.43;;;13.30;;
29958;SDS011;16815;51.100;6.516;2023-10-31T02:11:38;17.87;;;11.83;;
29958;SDS011;16815;51.100;6.516;2023-10-31T02:14:04;12.53;;;8.47;;
29958;SDS011;16815;51.100;6.516;2023-10-31T02:16:30;11.10;;;7.73;;
29958;SDS011;16815;51.100;6.516;2023-10-31T02:18:56;11.73;;;6.70;;
29958;SDS011;16815;51.100;6.516;2023-10-31T02:21:22;7.50;;;5.23;;
29958;SDS011;16815;51.100;6.516;2023-10-31T02:24:00;10.30;;;5.10;;
29958;SDS011;16815;51.100;6.516;2023-10-31T02:26:30;7.23;;;5.27;;
29958;SDS011;16815;51.100;6.516;2023-10-31T02:28:56;5.83;;;4.93;;
29958;SDS011;16815;51.100;6.516;2023-10-31T02:31:22;5.73;;;4.70;;
29958;SDS011;16815;51.100;6.516;2023-10-31T02:33:48;6.00;;;4.83;;
29958;SDS011;16815;51.100;6.516;2023-10-31T02:36:14;5.93;;;5.00;;
29958;SDS011;16815;51.100;6.516;2023-10-31T02:38:40;7.50;;;5.43;;
29958;SDS011;16815;51.100;6.516;2023-10-31T02:41:06;7.10;;;5.37;;
29958;SDS011;16815;51.100;6.516;2023-10-31T02:43:32;6.90;;;5.53;;
29958;SDS011;16815;51.100;6.516;2023-10-31T02:45:58;7.63;;;5.83;;
29958;SDS011;16815;51.100;6.516;2023-10-31T02:48:24;8.37;;;5.83;;
29958;SDS011;16815;51.100;6.516;2023-10-31T02:50:50;7.03;;;5.67;;
29958;SDS011;16815;51.100;6.516;2023-10-31T02:53:19;9.00;;;6.17;;
29958;SDS011;16815;51.100;6.516;2023-10-31T02:55:45;7.63;;;5.53;;
29958;SDS011;16815;51.100;6.516;2023-10-31T02:58:11;6.67;;;5.33;;
29958;SDS011;16815;51.100;6.516;2023-10-31T03:00:37;7.20;;;5.10;;
29958;SDS011;16815;51.100;6.516;2023-10-31T03:03:03;6.93;;;5.40;;
29958;SDS011;16815;51.100;6.516;2023-10-31T03:05:29;6.40;;;4.80;;
29958;SDS011;16815;51.100;6.516;2023-10-31T03:07:55;6.17;;;4.60;;
29958;SDS011;16815;51.100;6.516;2023-10-31T03:10:21;5.43;;;4.43;;
29958;SDS011;16815;51.100;6.516;2023-10-31T03:12:47;7.57;;;4.60;;
29958;SDS011;16815;51.100;6.516;2023-10-31T03:15:13;5.37;;;4.20;;
29958;SDS011;16815;51.100;6.516;2023-10-31T03:17:39;5.20;;;4.30;;
29958;SDS011;16815;51.100;6.516;2023-10-31T03:20:05;6.77;;;4.23;;
29958;SDS011;16815;51.100;6.516;2023-10-31T03:22:31;7.03;;;3.63;;
29958;SDS011;16815;51.100;6.516;2023-10-31T03:24:57;5.10;;;3.77;;
29958;SDS011;16815;51.100;6.516;2023-10-31T03:27:23;5.63;;;3.57;;
29958;SDS011;16815;51.100;6.516;2023-10-31T03:29:49;3.63;;;3.33;;
29958;SDS011;16815;51.100;6.516;2023-10-31T03:32:15;3.83;;;3.43;;
29958;SDS011;16815;51.100;6.516;2023-10-31T03:34:41;4.63;;;3.20;;
29958;SDS011;16815;51.100;6.516;2023-10-31T03:37:07;4.27;;;3.40;;
29958;SDS011;16815;51.100;6.516;2023-10-31T03:39:33;3.57;;;3.20;;
29958;SDS011;16815;51.100;6.516;2023-10-31T03:41:59;3.47;;;3.00;;
29958;SDS011;16815;51.100;6.516;2023-10-31T03:44:25;3.83;;;3.43;;
29958;SDS011;16815;51.100;6.516;2023-10-31T03:46:51;5.57;;;2.73;;
29958;SDS011;16815;51.100;6.516;2023-10-31T03:49:17;2.93;;;2.70;;
29958;SDS011;16815;51.100;6.516;2023-10-31T03:51:43;4.10;;;3.07;;
29958;SDS011;16815;51.100;6.516;2023-10-31T03:54:09;4.00;;;2.97;;
29958;SDS011;16815;51.100;6.516;2023-10-31T03:56:39;3.30;;;3.00;;
29958;SDS011;16815;51.100;6.516;2023-10-31T03:59:05;3.13;;;2.80;;
29958;SDS011;16815;51.100;6.516;2023-10-31T04:01:31;4.63;;;3.27;;
29958;SDS011;16815;51.100;6.516;2023-10-31T04:03:57;4.07;;;2.60;;
29958;SDS011;16815;51.100;6.516;2023-10-31T04:06:23;4.23;;;3.00;;
29958;SDS011;16815;51.100;6.516;2023-10-31T04:08:48;3.43;;;3.00;;
29958;SDS011;16815;51.100;6.516;2023-10-31T04:11:14;3.17;;;2.87;;
29958;SDS011;16815;51.100;6.516;2023-10-31T04:13:40;3.80;;;2.47;;
29958;SDS011;16815;51.100;6.516;2023-10-31T04:16:06;2.97;;;2.77;;
29958;SDS011;16815;51.100;6.516;2023-10-31T04:18:32;2.70;;;2.50;;
29958;SDS011;16815;51.100;6.516;2023-10-31T04:20:58;4.00;;;3.13;;
29958;SDS011;16815;51.100;6.516;2023-10-31T04:23:24;2.90;;;2.70;;
29958;SDS011;16815;51.100;6.516;2023-10-31T04:25:51;2.73;;;2.50;;
29958;SDS011;16815;51.100;6.516;2023-10-31T04:28:17;4.37;;;3.27;;
29958;SDS011;16815;51.100;6.516;2023-10-31T04:30:43;3.83;;;3.00;;
29958;SDS011;16815;51.100;6.516;2023-10-31T04:33:09;3.17;;;2.90;;
29958;SDS011;16815;51.100;6.516;2023-10-31T04:35:35;3.30;;;3.00;;
29958;SDS011;16815;51.100;6.516;2023-10-31T04:38:01;2.90;;;2.70;;
29958;SDS011;16815;51.100;6.516;2023-10-31T04:40:27;3.67;;;3.03;;
29958;SDS011;16815;51.100;6.516;2023-10-31T04:42:54;4.53;;;3.23;;
29958;SDS011;16815;51.100;6.516;2023-10-31T04:45:19;3.70;;;2.73;;
29958;SDS011;16815;51.100;6.516;2023-10-31T04:47:45;6.90;;;3.00;;
29958;SDS011;16815;51.100;6.516;2023-10-31T04:50:11;3.73;;;3.07;;
29958;SDS011;16815;51.100;6.516;2023-10-31T04:52:37;3.47;;;3.20;;
29958;SDS011;16815;51.100;6.516;2023-10-31T04:55:03;4.37;;;3.50;;
29958;SDS011;16815;51.100;6.516;2023-10-31T04:57:29;3.20;;;2.90;;
29958;SDS011;16815;51.100;6.516;2023-10-31T04:59:55;3.97;;;3.37;;
29958;SDS011;16815;51.100;6.516;2023-10-31T05:02:22;6.80;;;2.97;;
29958;SDS011;16815;51.100;6.516;2023-10-31T05:04:48;3.40;;;3.10;;
29958;SDS011;16815;51.100;6.516;2023-10-31T05:07:16;3.87;;;3.07;;
29958;SDS011;16815;51.100;6.516;2023-10-31T05:09:42;3.50;;;3.20;;
29958;SDS011;16815;51.100;6.516;2023-10-31T05:12:08;5.10;;;2.90;;
29958;SDS011;16815;51.100;6.516;2023-10-31T05:14:34;3.80;;;3.20;;
29958;SDS011;16815;51.100;6.516;2023-10-31T05:17:01;4.50;;;3.10;;
29958;SDS011;16815;51.100;6.516;2023-10-31T05:19:27;3.50;;;3.10;;
29958;SDS011;16815;51.100;6.516;2023-10-31T05:21:53;3.50;;;3.20;;
29958;SDS011;16815;51.100;6.516;2023-10-31T05:24:19;3.43;;;3.13;;
29958;SDS011;16815;51.100;6.516;2023-10-31T05:26:45;3.70;;;3.40;;
29958;SDS011;16815;51.100;6.516;2023-10-31T05:29:11;4.43;;;3.43;;
29958;SDS011;16815;51.100;6.516;2023-10-31T05:31:37;3.70;;;3.30;;
29958;SDS011;16815;51.100;6.516;2023-10-31T05:34:03;4.13;;;3.70;;
29958;SDS011;16815;51.100;6.516;2023-10-31T05:36:29;4.03;;;3.63;;
29958;SDS011;16815;51.100;6.516;2023-10-31T05:38:55;5.03;;;3.70;;
29958;SDS011;16815;51.100;6.516;2023-10-31T05:41:21;3.90;;;3.50;;
29958;SDS011;16815;51.100;6.516;2023-10-31T05:43:48;5.43;;;3.80;;
29958;SDS011;16815;51.100;6.516;2023-10-31T05:46:14;5.83;;;3.80;;
29958;SDS011;16815;51.100;6.516;2023-10-31T05:48:40;4.83;;;4.00;;
29958;SDS011;16815;51.100;6.516;2023-10-31T05:51:12;3.80;;;3.07;;
29958;SDS011;16815;51.100;6.516;2023-10-31T05:53:39;4.07;;;3.70;;
29958;SDS011;16815;51.100;6.516;2023-10-31T05:56:05;3.90;;;3.60;;
29958;SDS011;16815;51.100;6.516;2023-10-31T05:58:32;3.90;;;3.60;;
29958;SDS011;16815;51.100;6.516;2023-10-31T06:00:58;4.10;;;3.70;;
29958;SDS011;16815;51.100;6.516;2023-10-31T06:03:24;5.00;;;4.17;;
29958;SDS011;16815;51.100;6.516;2023-10-31T06:05:50;5.00;;;4.60;;
29958;SDS011;16815;51.100;6.516;2023-10-31T06:08:29;5.20;;;4.33;;
29958;SDS011;16815;51.100;6.516;2023-10-31T06:10:56;4.43;;;3.80;;
29958;SDS011;16815;51.100;6.516;2023-10-31T06:13:22;4.57;;;4.17;;
29958;SDS011;16815;51.100;6.516;2023-10-31T06:15:48;5.03;;;4.53;;
29958;SDS011;16815;51.100;6.516;2023-10-31T06:18:14;5.00;;;4.60;;
29958;SDS011;16815;51.100;6.516;2023-10-31T06:20:40;5.23;;;4.60;;
29958;SDS011;16815;51.100;6.516;2023-10-31T06:23:06;5.20;;;4.70;;
29958;SDS011;16815;51.100;6.516;2023-10-31T06:25:32;5.60;;;5.10;;
29958;SDS011;16815;51.100;6.516;2023-10-31T06:27:58;5.80;;;5.20;;
29958;SDS011;16815;51.100;6.516;2023-10-31T06:30:24;5.63;;;5.13;;
29958;SDS011;16815;51.100;6.516;2023-10-31T06:32:51;5.40;;;4.90;;
29958;SDS011;16815;51.100;6.516;2023-10-31T06:35:17;5.80;;;5.30;;
29958;SDS011;16815;51.100;6.516;2023-10-31T06:37:42;5.50;;;5.00;;
29958;SDS011;16815;51.100;6.516;2023-10-31T06:40:08;6.00;;;5.33;;
29958;SDS011;16815;51.100;6.516;2023-10-31T06:42:35;6.03;;;5.40;;
29958;SDS011;16815;51.100;6.516;2023-10-31T06:45:01;6.13;;;5.53;;
29958;SDS011;16815;51.100;6.516;2023-10-31T06:47:27;6.43;;;5.93;;
29958;SDS011;16815;51.100;6.516;2023-10-31T06:49:53;6.90;;;6.20;;
29958;SDS011;16815;51.100;6.516;2023-10-31T06:52:19;6.70;;;6.10;;
29958;SDS011;16815;51.100;6.516;2023-10-31T06:54:45;6.83;;;6.23;;
29958;SDS011;16815;51.100;6.516;2023-10-31T06:57:11;7.77;;;6.67;;
29958;SDS011;16815;51.100;6.516;2023-10-31T06:59:37;6.00;;;5.50;;
29958;SDS011;16815;51.100;6.516;2023-10-31T07:02:03;6.10;;;5.50;;
29958;SDS011;16815;51.100;6.516;2023-10-31T07:04:28;6.73;;;5.87;;
29958;SDS011;16815;51.100;6.516;2023-10-31T07:06:54;6.33;;;5.80;;
29958;SDS011;16815;51.100;6.516;2023-10-31T07:09:23;8.70;;;5.90;;
29958;SDS011;16815;51.100;6.516;2023-10-31T07:17:00;6.20;;;5.70;;
29958;SDS011;16815;51.100;6.516;2023-10-31T07:19:26;6.70;;;6.10;;
29958;SDS011;16815;51.100;6.516;2023-10-31T07:21:52;6.87;;;6.27;;
29958;SDS011;16815;51.100;6.516;2023-10-31T07:24:19;7.37;;;6.60;;
29958;SDS011;16815;51.100;6.516;2023-10-31T07:26:45;5.90;;;5.40;;
29958;SDS011;16815;51.100;6.516;2023-10-31T07:29:11;6.80;;;6.00;;
29958;SDS011;16815;51.100;6.516;2023-10-31T07:31:37;5.70;;;5.20;;
29958;SDS011;16815;51.100;6.516;2023-10-31T07:34:04;6.10;;;5.50;;
29958;SDS011;16815;51.100;6.516;2023-10-31T07:36:30;6.03;;;5.37;;
29958;SDS011;16815;51.100;6.516;2023-10-31T07:38:57;6.13;;;5.63;;
29958;SDS011;16815;51.100;6.516;2023-10-31T07:41:23;5.70;;;5.17;;
29958;SDS011;16815;51.100;6.516;2023-10-31T07:43:49;5.70;;;5.20;;
29958;SDS011;16815;51.100;6.516;2023-10-31T11:07:23;1.70;;;1.60;;
29958;SDS011;16815;51.100;6.516;2023-10-31T11:09:49;4.73;;;1.80;;
29958;SDS011;16815;51.100;6.516;2023-10-31T11:12:15;2.03;;;1.70;;
29958;SDS011;16815;51.100;6.516;2023-10-31T11:14:42;4.40;;;2.13;;
29958;SDS011;16815;51.100;6.516;2023-10-31T11:17:14;3.20;;;1.97;;
29958;SDS011;16815;51.100;6.516;2023-10-31T11:19:46;1.63;;;1.50;;
29958;SDS011;16815;51.100;6.516;2023-10-31T11:22:12;2.73;;;1.70;;
29958;SDS011;16815;51.100;6.516;2023-10-31T11:24:38;4.23;;;1.77;;
29958;SDS011;16815;51.100;6.516;2023-10-31T11:27:06;1.87;;;1.50;;
29958;SDS011;16815;51.100;6.516;2023-10-31T11:29:32;2.40;;;1.70;;
29958;SDS011;16815;51.100;6.516;2023-10-31T11:31:59;1.77;;;1.67;;
29958;SDS011;16815;51.100;6.516;2023-10-31T11:34:28;3.83;;;2.00;;
29958;SDS011;16815;51.100;6.516;2023-10-31T11:37:17;2.80;;;1.73;;
29958;SDS011;16815;51.100;6.516;2023-10-31T11:39:41;4.10;;;1.73;;
29958;SDS011;16815;51.100;6.516;2023-10-31T11:42:17;3.20;;;2.00;;
29958;SDS011;16815;51.100;6.516;2023-10-31T11:44:55;4.43;;;1.77;;
29958;SDS011;16815;51.100;6.516;2023-10-31T11:47:22;4.67;;;2.27;;
29958;SDS011;16815;51.100;6.516;2023-10-31T11:49:48;2.97;;;1.70;;
29958;SDS011;16815;51.100;6.516;2023-10-31T11:52:15;3.47;;;2.30;;
29958;SDS011;16815;51.100;6.516;2023-10-31T11:54:41;5.20;;;2.00;;
29958;SDS011;16815;51.100;6.516;2023-10-31T11:57:07;2.33;;;2.00;;
29958;SDS011;16815;51.100;6.516;2023-10-31T11:59:37;2.50;;;1.70;;
29958;SDS011;16815;51.100;6.516;2023-10-31T12:02:15;6.30;;;2.10;;
29958;SDS011;16815;51.100;6.516;2023-10-31T12:04:41;6.27;;;2.17;;
29958;SDS011;16815;51.100;6.516;2023-10-31T12:07:08;3.43;;;2.20;;
29958;SDS011;16815;51.100;6.516;2023-10-31T12:09:45;4.93;;;2.00;;
29958;SDS011;16815;51.100;6.516;2023-10-31T12:12:11;8.07;;;1.93;;
29958;SDS011;16815;51.100;6.516;2023-10-31T12:14:37;4.37;;;1.80;;
29958;SDS011;16815;51.100;6.516;2023-10-31T12:17:04;5.93;;;2.13;;
29958;SDS011;16815;51.100;6.516;2023-10-31T12:19:31;5.27;;;1.87;;
29958;SDS011;16815;51.100;6.516;2023-10-31T12:21:58;6.97;;;1.63;;
29958;SDS011;16815;51.100;6.516;2023-10-31T12:24:23;2.27;;;1.57;;
29958;SDS011;16815;51.100;6.516;2023-10-31T12:26:49;3.37;;;1.57;;
29958;SDS011;16815;51.100;6.516;2023-10-31T12:29:17;2.87;;;1.50;;
29958;SDS011;16815;51.100;6.516;2023-10-31T12:31:46;3.37;;;1.97;;
29958;SDS011;16815;51.100;6.516;2023-10-31T12:34:14;7.50;;;1.77;;
29958;SDS011;16815;51.100;6.516;2023-10-31T12:36:40;2.57;;;1.33;;
29958;SDS011;16815;51.100;6.516;2023-10-31T12:39:07;5.13;;;1.50;;
29958;SDS011;16815;51.100;6.516;2023-10-31T12:41:34;6.50;;;2.33;;
29958;SDS011;16815;51.100;6.516;2023-10-31T12:44:00;3.53;;;1.50;;
29958;SDS011;16815;51.100;6.516;2023-10-31T12:46:27;3.97;;;1.60;;
29958;SDS011;16815;51.100;6.516;2023-10-31T12:48:54;4.33;;;1.30;;
29958;SDS011;16815;51.100;6.516;2023-10-31T12:51:20;4.67;;;1.90;;
29958;SDS011;16815;51.100;6.516;2023-10-31T12:53:49;3.63;;;1.40;;
29958;SDS011;16815;51.100;6.516;2023-10-31T12:56:35;1.20;;;1.10;;
29958;SDS011;16815;51.100;6.516;2023-10-31T12:59:04;6.40;;;1.50;;
29958;SDS011;16815;51.100;6.516;2023-10-31T13:01:32;4.37;;;1.60;;
29958;SDS011;16815;51.100;6.516;2023-10-31T13:03:58;5.27;;;2.00;;
29958;SDS011;16815;51.100;6.516;2023-10-31T13:06:24;3.70;;;1.70;;
29958;SDS011;16815;51.100;6.516;2023-10-31T13:08:50;2.90;;;1.60;;
29958;SDS011;16815;51.100;6.516;2023-10-31T13:11:16;5.03;;;1.60;;
29958;SDS011;16815;51.100;6.516;2023-10-31T13:13:42;1.80;;;1.30;;
29958;SDS011;16815;51.100;6.516;2023-10-31T13:16:08;4.43;;;1.93;;
29958;SDS011;16815;51.100;6.516;2023-10-31T13:18:35;6.43;;;1.60;;
29958;SDS011;16815;51.100;6.516;2023-10-31T13:21:01;4.03;;;1.70;;
29958;SDS011;16815;51.100;6.516;2023-10-31T13:23:26;4.10;;;1.63;;
29958;SDS011;16815;51.100;6.516;2023-10-31T13:25:52;2.30;;;1.23;;
29958;SDS011;16815;51.100;6.516;2023-10-31T13:28:18;1.33;;;1.20;;
29958;SDS011;16815;51.100;6.516;2023-10-31T13:30:44;2.60;;;1.53;;
29958;SDS011;16815;51.100;6.516;2023-10-31T13:33:13;3.80;;;1.73;;
29958;SDS011;16815;51.100;6.516;2023-10-31T13:35:39;3.37;;;1.50;;
29958;SDS011;16815;51.100;6.516;2023-10-31T13:38:05;3.40;;;1.43;;
29958;SDS011;16815;51.100;6.516;2023-10-31T13:40:31;7.97;;;1.60;;
29958;SDS011;16815;51.100;6.516;2023-10-31T13:42:57;4.93;;;1.80;;
29958;SDS011;16815;51.100;6.516;2023-10-31T13:45:22;3.67;;;1.60;;
29958;SDS011;16815;51.100;6.516;2023-10-31T13:47:48;3.90;;;1.80;;
29958;SDS011;16815;51.100;6.516;2023-10-31T13:50:14;4.03;;;1.50;;
29958;SDS011;16815;51.100;6.516;2023-10-31T13:52:40;4.87;;;1.57;;
29958;SDS011;16815;51.100;6.516;2023-10-31T13:55:07;3.00;;;1.50;;
29958;SDS011;16815;51.100;6.516;2023-10-31T13:57:33;5.67;;;1.90;;
29958;SDS011;16815;51.100;6.516;2023-10-31T13:59:59;3.20;;;1.40;;
29958;SDS011;16815;51.100;6.516;2023-10-31T14:02:25;6.77;;;1.63;;
29958;SDS011;16815;51.100;6.516;2023-10-31T14:04:53;2.47;;;1.50;;
29958;SDS011;16815;51.100;6.516;2023-10-31T14:07:20;9.97;;;2.23;;
29958;SDS011;16815;51.100;6.516;2023-10-31T14:09:48;2.97;;;1.70;;
29958;SDS011;16815;51.100;6.516;2023-10-31T14:12:14;5.47;;;2.00;;
29958;SDS011;16815;51.100;6.516;2023-10-31T14:14:40;7.13;;;1.90;;
29958;SDS011;16815;51.100;6.516;2023-10-31T14:17:06;5.30;;;2.17;;
29958;SDS011;16815;51.100;6.516;2023-10-31T14:19:32;7.63;;;2.40;;
29958;SDS011;16815;51.100;6.516;2023-10-31T14:21:58;3.30;;;1.77;;
29958;SDS011;16815;51.100;6.516;2023-10-31T14:24:24;4.93;;;1.80;;
29958;SDS011;16815;51.100;6.516;2023-10-31T14:26:50;5.50;;;1.80;;
29958;SDS011;16815;51.100;6.516;2023-10-31T14:29:16;4.13;;;1.50;;
29958;SDS011;16815;51.100;6.516;2023-10-31T14:31:42;8.03;;;1.97;;
29958;SDS011;16815;51.100;6.516;2023-10-31T14:34:08;5.67;;;1.73;;
29958;SDS011;16815;51.100;6.516;2023-10-31T14:36:34;4.37;;;1.67;;
29958;SDS011;16815;51.100;6.516;2023-10-31T14:39:00;8.97;;;2.13;;
29958;SDS011;16815;51.100;6.516;2023-10-31T14:41:27;7.23;;;2.10;;
29958;SDS011;16815;51.100;6.516;2023-10-31T14:43:53;4.37;;;1.80;;
29958;SDS011;16815;51.100;6.516;2023-10-31T14:46:19;3.20;;;1.40;;
29958;SDS011;16815;51.100;6.516;2023-10-31T14:48:45;5.23;;;1.83;;
29958;SDS011;16815;51.100;6.516;2023-10-31T14:51:11;2.40;;;1.50;;
29958;SDS011;16815;51.100;6.516;2023-10-31T14:53:37;5.57;;;1.80;;
29958;SDS011;16815;51.100;6.516;2023-10-31T14:56:03;3.00;;;1.57;;
29958;SDS011;16815;51.100;6.516;2023-10-31T14:58:30;3.83;;;1.40;;
29958;SDS011;16815;51.100;6.516;2023-10-31T15:00:56;3.23;;;1.43;;
29958;SDS011;16815;51.100;6.516;2023-10-31T15:03:22;5.53;;;1.40;;
29958;SDS011;16815;51.100;6.516;2023-10-31T15:05:48;2.67;;;1.50;;
29958;SDS011;16815;51.100;6.516;2023-10-31T15:08:14;4.73;;;1.70;;
29958;SDS011;16815;51.100;6.516;2023-10-31T15:10:41;4.63;;;1.77;;
29958;SDS011;16815;51.100;6.516;2023-10-31T15:13:07;2.77;;;1.60;;
29958;SDS011;16815;51.100;6.516;2023-10-31T15:15:33;4.90;;;1.77;;
29958;SDS011;16815;51.100;6.516;2023-10-31T15:17:59;2.97;;;1.40;;
29958;SDS011;16815;51.100;6.516;2023-10-31T15:20:26;4.40;;;1.50;;
29958;SDS011;16815;51.100;6.516;2023-10-31T15:22:52;4.67;;;1.70;;
29958;SDS011;16815;51.100;6.516;2023-10-31T15:25:18;5.53;;;1.97;;
29958;SDS011;16815;51.100;6.516;2023-10-31T15:27:44;2.67;;;1.70;;
29958;SDS011;16815;51.100;6.516;2023-10-31T15:30:10;3.67;;;1.97;;
29958;SDS011;16815;51.100;6.516;2023-10-31T15:32:36;5.07;;;1.90;;
29958;SDS011;16815;51.100;6.516;2023-10-31T15:35:05;6.97;;;1.97;;
29958;SDS011;16815;51.100;6.516;2023-10-31T15:37:31;4.27;;;1.43;;
29958;SDS011;16815;51.100;6.516;2023-10-31T15:39:57;3.53;;;1.77;;
29958;SDS011;16815;51.100;6.516;2023-10-31T15:42:23;5.60;;;2.13;;
29958;SDS011;16815;51.100;6.516;2023-10-31T15:44:49;4.30;;;1.43;;
29958;SDS011;16815;51.100;6.516;2023-10-31T15:47:15;3.70;;;1.80;;
29958;SDS011;16815;51.100;6.516;2023-10-31T15:49:44;2.63;;;1.60;;
29958;SDS011;16815;51.100;6.516;2023-10-31T15:52:10;3.77;;;1.70;;
29958;SDS011;16815;51.100;6.516;2023-10-31T15:54:36;1.93;;;1.40;;
29958;SDS011;16815;51.100;6.516;2023-10-31T15:57:02;4.00;;;2.07;;
29958;SDS011;16815;51.100;6.516;2023-10-31T15:59:28;2.27;;;1.70;;
29958;SDS011;16815;51.100;6.516;2023-10-31T16:01:54;3.37;;;2.00;;
29958;SDS011;16815;51.100;6.516;2023-10-31T16:04:20;2.27;;;1.53;;
29958;SDS011;16815;51.100;6.516;2023-10-31T16:06:48;2.73;;;1.93;;
29958;SDS011;16815;51.100;6.516;2023-10-31T16:09:14;3.73;;;1.93;;
29958;SDS011;16815;51.100;6.516;2023-10-31T16:11:40;4.23;;;2.17;;
29958;SDS011;16815;51.100;6.516;2023-10-31T16:14:06;4.50;;;1.90;;
29958;SDS011;16815;51.100;6.516;2023-10-31T16:16:32;4.27;;;2.20;;
29958;SDS011;16815;51.100;6.516;2023-10-31T16:19:03;3.77;;;2.00;;
29958;SDS011;16815;51.100;6.516;2023-10-31T16:21:30;4.20;;;2.60;;
29958;SDS011;16815;51.100;6.516;2023-10-31T16:23:56;4.17;;;2.70;;
29958;SDS011;16815;51.100;6.516;2023-10-31T16:26:23;3.30;;;2.60;;
29958;SDS011;16815;51.100;6.516;2023-10-31T16:28:49;4.20;;;2.40;;
29958;SDS011;16815;51.100;6.516;2023-10-31T16:31:15;2.90;;;2.17;;
29958;SDS011;16815;51.100;6.516;2023-10-31T16:33:41;4.27;;;2.20;;
29958;SDS011;16815;51.100;6.516;2023-10-31T16:36:10;4.97;;;2.17;;
29958;SDS011;16815;51.100;6.516;2023-10-31T16:38:36;2.43;;;2.00;;
29958;SDS011;16815;51.100;6.516;2023-10-31T16:41:02;3.57;;;2.30;;
29958;SDS011;16815;51.100;6.516;2023-10-31T16:43:28;3.63;;;2.97;;
29958;SDS011;16815;51.100;6.516;2023-10-31T16:45:55;2.67;;;1.93;;
29958;SDS011;16815;51.100;6.516;2023-10-31T16:48:21;11.77;;;6.30;;
29958;SDS011;16815;51.100;6.516;2023-10-31T16:50:56;4.97;;;3.53;;
29958;SDS011;16815;51.100;6.516;2023-10-31T16:53:25;6.13;;;4.00;;
29958;SDS011;16815;51.100;6.516;2023-10-31T16:56:06;5.83;;;3.60;;
29958;SDS011;16815;51.100;6.516;2023-10-31T16:58:32;3.57;;;2.77;;
29958;SDS011;16815;51.100;6.516;2023-10-31T17:00:59;2.43;;;2.10;;
29958;SDS011;16815;51.100;6.516;2023-10-31T17:03:24;3.63;;;2.13;;
29958;SDS011;16815;51.100;6.516;2023-10-31T17:05:50;3.00;;;2.00;;
29958;SDS011;16815;51.100;6.516;2023-10-31T17:08:16;2.53;;;2.07;;
29958;SDS011;16815;51.100;6.516;2023-10-31T17:10:42;2.70;;;1.93;;
29958;SDS011;16815;51.100;6.516;2023-10-31T17:13:09;3.37;;;1.80;;
29958;SDS011;16815;51.100;6.516;2023-10-31T17:15:35;2.57;;;2.10;;
29958;SDS011;16815;51.100;6.516;2023-10-31T17:18:01;3.60;;;2.30;;
29958;SDS011;16815;51.100;6.516;2023-10-31T17:20:30;2.30;;;2.10;;
29958;SDS011;16815;51.100;6.516;2023-10-31T17:22:56;3.77;;;1.80;;
29958;SDS011;16815;51.100;6.516;2023-10-31T17:25:25;3.47;;;2.10;;
29958;SDS011;16815;51.100;6.516;2023-10-31T17:27:51;3.97;;;2.00;;
29958;SDS011;16815;51.100;6.516;2023-10-31T17:30:17;3.60;;;1.70;;
29958;SDS011;16815;51.100;6.516;2023-10-31T17:32:43;3.83;;;2.53;;
29958;SDS011;16815;51.100;6.516;2023-10-31T17:35:09;2.93;;;2.20;;
29958;SDS011;16815;51.100;6.516;2023-10-31T17:37:35;2.00;;;1.80;;
29958;SDS011;16815;51.100;6.516;2023-10-31T17:40:01;3.10;;;2.10;;
29958;SDS011;16815;51.100;6.516;2023-10-31T17:42:27;1.90;;;1.70;;
29958;SDS011;16815;51.100;6.516;2023-10-31T17:44:53;4.90;;;2.00;;
29958;SDS011;16815;51.100;6.516;2023-10-31T17:47:19;3.37;;;2.30;;
29958;SDS011;16815;51.100;6.516;2023-10-31T17:49:45;2.27;;;2.07;;
29958;SDS011;16815;51.100;6.516;2023-10-31T17:52:11;3.67;;;2.00;;
29958;SDS011;16815;51.100;6.516;2023-10-31T17:54:37;2.53;;;1.83;;
29958;SDS011;16815;51.100;6.516;2023-10-31T17:57:06;4.53;;;1.97;;
29958;SDS011;16815;51.100;6.516;2023-10-31T17:59:33;2.20;;;1.80;;
29958;SDS011;16815;51.100;6.516;2023-10-31T18:01:59;2.00;;;1.80;;
29958;SDS011;16815;51.100;6.516;2023-10-31T18:04:25;4.63;;;2.70;;
29958;SDS011;16815;51.100;6.516;2023-10-31T18:09:55;4.73;;;2.90;;